sensor_id;sensor_type;location;lat;lon;timestamp;P1;durP1;ratioP1;P2;durP2;ratioP2
48516;SDS011;34310;51.904;4.256;2023-11-22T00:00:30;7.40;;;6.50;;
48516;SDS011;34310;51.904;4.256;2023-11-22T00:02:56;8.60;;;6.43;;
48516;SDS011;34310;51.904;4.256;2023-11-22T00:05:23;7.18;;;6.40;;
48516;SDS011;34310;51.904;4.256;2023-11-22T00:07:49;7.68;;;6.57;;
48516;SDS011;34310;51.904;4.256;2023-11-22T00:10:16;7.57;;;6.82;;
48516;SDS011;34310;51.904;4.256;2023-11-22T00:12:42;7.35;;;6.57;;
48516;SDS011;34310;51.904;4.256;2023-11-22T00:15:08;7.00;;;6.25;;
48516;SDS011;34310;51.904;4.256;2023-11-22T00:17:35;7.70;;;6.65;;
48516;SDS011;34310;51.904;4.256;2023-11-22T00:20:02;8.25;;;6.93;;
48516;SDS011;34310;51.904;4.256;2023-11-22T00:22:29;8.07;;;6.80;;
48516;SDS011;34310;51.904;4.256;2023-11-22T00:24:55;7.28;;;6.18;;
48516;SDS011;34310;51.904;4.256;2023-11-22T00:27:22;7.32;;;6.32;;
48516;SDS011;34310;51.904;4.256;2023-11-22T00:29:48;7.63;;;6.30;;
48516;SDS011;34310;51.904;4.256;2023-11-22T00:32:15;8.13;;;6.20;;
48516;SDS011;34310;51.904;4.256;2023-11-22T00:34:41;6.78;;;6.00;;
48516;SDS011;34310;51.904;4.256;2023-11-22T00:37:08;9.50;;;6.55;;
48516;SDS011;34310;51.904;4.256;2023-11-22T00:39:34;7.25;;;6.13;;
48516;SDS011;34310;51.904;4.256;2023-11-22T00:42:01;6.60;;;6.00;;
48516;SDS011;34310;51.904;4.256;2023-11-22T00:44:27;9.52;;;6.55;;
48516;SDS011;34310;51.904;4.256;2023-11-22T00:46:54;6.90;;;6.15;;
48516;SDS011;34310;51.904;4.256;2023-11-22T00:49:20;6.53;;;5.85;;
48516;SDS011;34310;51.904;4.256;2023-11-22T00:51:46;6.72;;;6.00;;
48516;SDS011;34310;51.904;4.256;2023-11-22T00:54:13;6.82;;;5.90;;
48516;SDS011;34310;51.904;4.256;2023-11-22T00:56:39;7.22;;;6.10;;
48516;SDS011;34310;51.904;4.256;2023-11-22T00:59:06;7.07;;;6.38;;
48516;SDS011;34310;51.904;4.256;2023-11-22T01:01:32;7.20;;;5.75;;
48516;SDS011;34310;51.904;4.256;2023-11-22T01:03:59;7.28;;;6.03;;
48516;SDS011;34310;51.904;4.256;2023-11-22T01:06:26;7.88;;;6.20;;
48516;SDS011;34310;51.904;4.256;2023-11-22T01:08:52;6.95;;;5.63;;
48516;SDS011;34310;51.904;4.256;2023-11-22T01:11:19;7.03;;;6.22;;
48516;SDS011;34310;51.904;4.256;2023-11-22T01:13:45;7.82;;;6.40;;
48516;SDS011;34310;51.904;4.256;2023-11-22T01:16:12;6.88;;;6.18;;
48516;SDS011;34310;51.904;4.256;2023-11-22T01:18:38;6.30;;;5.70;;
48516;SDS011;34310;51.904;4.256;2023-11-22T01:21:06;9.07;;;5.70;;
48516;SDS011;34310;51.904;4.256;2023-11-22T01:23:33;7.50;;;5.57;;
48516;SDS011;34310;51.904;4.256;2023-11-22T01:26:00;6.18;;;5.32;;
48516;SDS011;34310;51.904;4.256;2023-11-22T01:28:27;6.45;;;5.70;;
48516;SDS011;34310;51.904;4.256;2023-11-22T01:30:53;7.03;;;5.72;;
48516;SDS011;34310;51.904;4.256;2023-11-22T01:33:21;6.78;;;5.80;;
48516;SDS011;34310;51.904;4.256;2023-11-22T01:35:48;6.75;;;5.97;;
48516;SDS011;34310;51.904;4.256;2023-11-22T01:38:15;6.10;;;5.18;;
48516;SDS011;34310;51.904;4.256;2023-11-22T01:40:45;6.32;;;4.90;;
48516;SDS011;34310;51.904;4.256;2023-11-22T01:43:14;6.50;;;5.50;;
48516;SDS011;34310;51.904;4.256;2023-11-22T01:45:41;6.30;;;5.70;;
48516;SDS011;34310;51.904;4.256;2023-11-22T01:48:07;6.90;;;5.65;;
48516;SDS011;34310;51.904;4.256;2023-11-22T01:50:34;6.05;;;5.43;;
48516;SDS011;34310;51.904;4.256;2023-11-22T01:53:00;6.45;;;5.40;;
48516;SDS011;34310;51.904;4.256;2023-11-22T01:55:27;7.53;;;5.85;;
48516;SDS011;34310;51.904;4.256;2023-11-22T01:57:53;6.50;;;5.28;;
48516;SDS011;34310;51.904;4.256;2023-11-22T02:00:20;6.10;;;5.45;;
48516;SDS011;34310;51.904;4.256;2023-11-22T02:02:47;8.13;;;5.45;;
48516;SDS011;34310;51.904;4.256;2023-11-22T02:05:14;7.30;;;5.72;;
48516;SDS011;34310;51.904;4.256;2023-11-22T02:07:40;6.57;;;5.70;;
48516;SDS011;34310;51.904;4.256;2023-11-22T02:10:08;6.30;;;5.70;;
48516;SDS011;34310;51.904;4.256;2023-11-22T02:12:34;6.53;;;5.55;;
48516;SDS011;34310;51.904;4.256;2023-11-22T02:15:01;5.72;;;5.13;;
48516;SDS011;34310;51.904;4.256;2023-11-22T02:17:28;6.25;;;5.20;;
48516;SDS011;34310;51.904;4.256;2023-11-22T02:19:55;5.80;;;5.20;;
48516;SDS011;34310;51.904;4.256;2023-11-22T02:22:22;6.47;;;5.20;;
48516;SDS011;34310;51.904;4.256;2023-11-22T02:24:48;7.95;;;5.40;;
48516;SDS011;34310;51.904;4.256;2023-11-22T02:27:15;6.47;;;5.80;;
48516;SDS011;34310;51.904;4.256;2023-11-22T02:29:41;6.13;;;5.30;;
48516;SDS011;34310;51.904;4.256;2023-11-22T02:32:08;7.90;;;5.95;;
48516;SDS011;34310;51.904;4.256;2023-11-22T02:34:37;7.65;;;5.40;;
48516;SDS011;34310;51.904;4.256;2023-11-22T02:37:03;6.70;;;5.40;;
48516;SDS011;34310;51.904;4.256;2023-11-22T02:39:37;6.63;;;5.93;;
48516;SDS011;34310;51.904;4.256;2023-11-22T02:42:23;6.28;;;5.55;;
48516;SDS011;34310;51.904;4.256;2023-11-22T02:44:50;6.43;;;5.38;;
48516;SDS011;34310;51.904;4.256;2023-11-22T02:47:16;6.72;;;5.18;;
48516;SDS011;34310;51.904;4.256;2023-11-22T02:49:43;6.05;;;5.30;;
48516;SDS011;34310;51.904;4.256;2023-11-22T02:52:09;5.57;;;5.00;;
48516;SDS011;34310;51.904;4.256;2023-11-22T02:54:36;7.47;;;5.32;;
48516;SDS011;34310;51.904;4.256;2023-11-22T02:57:02;6.18;;;5.43;;
48516;SDS011;34310;51.904;4.256;2023-11-22T02:59:29;6.57;;;5.50;;
48516;SDS011;34310;51.904;4.256;2023-11-22T03:01:56;6.43;;;5.18;;
48516;SDS011;34310;51.904;4.256;2023-11-22T03:04:22;8.70;;;5.57;;
48516;SDS011;34310;51.904;4.256;2023-11-22T03:06:49;6.00;;;5.40;;
48516;SDS011;34310;51.904;4.256;2023-11-22T03:09:15;8.20;;;5.18;;
48516;SDS011;34310;51.904;4.256;2023-11-22T03:11:42;6.10;;;5.50;;
48516;SDS011;34310;51.904;4.256;2023-11-22T03:14:08;6.03;;;5.32;;
48516;SDS011;34310;51.904;4.256;2023-11-22T03:16:38;6.15;;;5.47;;
48516;SDS011;34310;51.904;4.256;2023-11-22T03:19:05;6.30;;;5.00;;
48516;SDS011;34310;51.904;4.256;2023-11-22T03:21:31;6.68;;;5.18;;
48516;SDS011;34310;51.904;4.256;2023-11-22T03:23:58;6.05;;;5.18;;
48516;SDS011;34310;51.904;4.256;2023-11-22T03:26:24;7.40;;;5.38;;
48516;SDS011;34310;51.904;4.256;2023-11-22T03:28:51;5.68;;;5.07;;
48516;SDS011;34310;51.904;4.256;2023-11-22T03:31:17;5.82;;;5.18;;
48516;SDS011;34310;51.904;4.256;2023-11-22T03:33:44;6.65;;;4.97;;
48516;SDS011;34310;51.904;4.256;2023-11-22T03:36:10;5.63;;;5.03;;
48516;SDS011;34310;51.904;4.256;2023-11-22T03:38:37;7.68;;;4.95;;
48516;SDS011;34310;51.904;4.256;2023-11-22T03:41:05;6.40;;;5.72;;
48516;SDS011;34310;51.904;4.256;2023-11-22T03:43:32;5.80;;;5.07;;
48516;SDS011;34310;51.904;4.256;2023-11-22T03:45:58;5.53;;;4.85;;
48516;SDS011;34310;51.904;4.256;2023-11-22T03:48:25;5.13;;;4.63;;
48516;SDS011;34310;51.904;4.256;2023-11-22T03:50:51;5.05;;;4.55;;
48516;SDS011;34310;51.904;4.256;2023-11-22T03:53:18;5.80;;;5.30;;
48516;SDS011;34310;51.904;4.256;2023-11-22T03:55:44;5.10;;;4.60;;
48516;SDS011;34310;51.904;4.256;2023-11-22T03:58:11;5.70;;;5.10;;
48516;SDS011;34310;51.904;4.256;2023-11-22T04:00:37;5.75;;;5.00;;
48516;SDS011;34310;51.904;4.256;2023-11-22T04:03:04;5.95;;;5.13;;
48516;SDS011;34310;51.904;4.256;2023-11-22T04:05:31;5.03;;;4.53;;
48516;SDS011;34310;51.904;4.256;2023-11-22T04:07:57;5.95;;;4.60;;
48516;SDS011;34310;51.904;4.256;2023-11-22T04:10:23;5.47;;;4.80;;
48516;SDS011;34310;51.904;4.256;2023-11-22T04:12:50;5.22;;;4.72;;
48516;SDS011;34310;51.904;4.256;2023-11-22T04:15:17;7.00;;;5.10;;
48516;SDS011;34310;51.904;4.256;2023-11-22T04:17:44;5.25;;;4.75;;
48516;SDS011;34310;51.904;4.256;2023-11-22T04:20:11;6.00;;;4.85;;
48516;SDS011;34310;51.904;4.256;2023-11-22T04:22:37;6.93;;;4.95;;
48516;SDS011;34310;51.904;4.256;2023-11-22T04:25:04;5.90;;;4.57;;
48516;SDS011;34310;51.904;4.256;2023-11-22T04:27:31;5.28;;;4.60;;
48516;SDS011;34310;51.904;4.256;2023-11-22T04:29:58;5.60;;;4.70;;
48516;SDS011;34310;51.904;4.256;2023-11-22T04:32:25;6.18;;;4.45;;
48516;SDS011;34310;51.904;4.256;2023-11-22T04:34:52;5.65;;;5.00;;
48516;SDS011;34310;51.904;4.256;2023-11-22T04:37:18;5.20;;;4.70;;
48516;SDS011;34310;51.904;4.256;2023-11-22T04:39:45;5.57;;;4.60;;
48516;SDS011;34310;51.904;4.256;2023-11-22T04:42:11;5.22;;;4.72;;
48516;SDS011;34310;51.904;4.256;2023-11-22T04:44:37;5.78;;;5.22;;
48516;SDS011;34310;51.904;4.256;2023-11-22T04:47:04;5.50;;;4.63;;
48516;SDS011;34310;51.904;4.256;2023-11-22T04:49:30;5.40;;;4.90;;
48516;SDS011;34310;51.904;4.256;2023-11-22T04:51:57;5.72;;;5.13;;
48516;SDS011;34310;51.904;4.256;2023-11-22T04:54:23;4.97;;;4.47;;
48516;SDS011;34310;51.904;4.256;2023-11-22T04:56:50;5.15;;;4.57;;
48516;SDS011;34310;51.904;4.256;2023-11-22T04:59:16;5.03;;;4.43;;
48516;SDS011;34310;51.904;4.256;2023-11-22T05:01:43;5.57;;;5.07;;
48516;SDS011;34310;51.904;4.256;2023-11-22T05:04:09;5.22;;;4.72;;
48516;SDS011;34310;51.904;4.256;2023-11-22T05:06:36;5.55;;;5.00;;
48516;SDS011;34310;51.904;4.256;2023-11-22T05:09:02;5.88;;;5.05;;
48516;SDS011;34310;51.904;4.256;2023-11-22T05:11:29;5.25;;;4.75;;
48516;SDS011;34310;51.904;4.256;2023-11-22T05:13:55;5.95;;;4.90;;
48516;SDS011;34310;51.904;4.256;2023-11-22T05:16:22;6.65;;;5.53;;
48516;SDS011;34310;51.904;4.256;2023-11-22T05:18:49;5.78;;;5.00;;
48516;SDS011;34310;51.904;4.256;2023-11-22T05:21:15;6.20;;;5.03;;
48516;SDS011;34310;51.904;4.256;2023-11-22T05:23:42;6.97;;;5.32;;
48516;SDS011;34310;51.904;4.256;2023-11-22T05:26:11;5.90;;;5.30;;
48516;SDS011;34310;51.904;4.256;2023-11-22T05:28:38;6.30;;;5.13;;
48516;SDS011;34310;51.904;4.256;2023-11-22T05:31:04;6.80;;;5.97;;
48516;SDS011;34310;51.904;4.256;2023-11-22T05:33:31;7.20;;;5.50;;
48516;SDS011;34310;51.904;4.256;2023-11-22T05:35:57;6.20;;;5.60;;
48516;SDS011;34310;51.904;4.256;2023-11-22T05:38:24;6.88;;;5.50;;
48516;SDS011;34310;51.904;4.256;2023-11-22T05:40:50;7.88;;;5.47;;
48516;SDS011;34310;51.904;4.256;2023-11-22T05:43:17;6.85;;;5.85;;
48516;SDS011;34310;51.904;4.256;2023-11-22T05:45:43;6.88;;;5.78;;
48516;SDS011;34310;51.904;4.256;2023-11-22T05:48:10;6.72;;;6.05;;
48516;SDS011;34310;51.904;4.256;2023-11-22T05:50:36;7.03;;;5.68;;
48516;SDS011;34310;51.904;4.256;2023-11-22T05:53:03;6.40;;;5.80;;
48516;SDS011;34310;51.904;4.256;2023-11-22T05:55:29;6.85;;;6.10;;
48516;SDS011;34310;51.904;4.256;2023-11-22T05:57:56;6.88;;;6.05;;
48516;SDS011;34310;51.904;4.256;2023-11-22T06:00:22;7.38;;;6.32;;
48516;SDS011;34310;51.904;4.256;2023-11-22T06:02:49;7.43;;;6.35;;
48516;SDS011;34310;51.904;4.256;2023-11-22T06:05:15;6.78;;;6.03;;
48516;SDS011;34310;51.904;4.256;2023-11-22T06:07:42;7.95;;;6.13;;
48516;SDS011;34310;51.904;4.256;2023-11-22T06:10:09;7.82;;;7.03;;
48516;SDS011;34310;51.904;4.256;2023-11-22T06:12:35;10.05;;;7.55;;
48516;SDS011;34310;51.904;4.256;2023-11-22T06:15:02;7.80;;;6.95;;
48516;SDS011;34310;51.904;4.256;2023-11-22T06:17:29;10.38;;;7.95;;
48516;SDS011;34310;51.904;4.256;2023-11-22T06:19:55;10.02;;;8.63;;
48516;SDS011;34310;51.904;4.256;2023-11-22T06:22:22;9.15;;;7.82;;
48516;SDS011;34310;51.904;4.256;2023-11-22T06:24:48;10.32;;;8.23;;
48516;SDS011;34310;51.904;4.256;2023-11-22T06:27:15;12.10;;;8.15;;
48516;SDS011;34310;51.904;4.256;2023-11-22T06:29:41;10.65;;;8.10;;
48516;SDS011;34310;51.904;4.256;2023-11-22T06:32:08;11.57;;;8.38;;
48516;SDS011;34310;51.904;4.256;2023-11-22T06:34:35;12.25;;;8.35;;
48516;SDS011;34310;51.904;4.256;2023-11-22T06:37:04;11.98;;;8.07;;
48516;SDS011;34310;51.904;4.256;2023-11-22T06:39:30;13.20;;;8.73;;
48516;SDS011;34310;51.904;4.256;2023-11-22T06:41:57;12.38;;;8.43;;
48516;SDS011;34310;51.904;4.256;2023-11-22T06:44:23;12.15;;;8.82;;
48516;SDS011;34310;51.904;4.256;2023-11-22T06:46:50;14.13;;;8.93;;
48516;SDS011;34310;51.904;4.256;2023-11-22T06:49:16;12.82;;;8.63;;
48516;SDS011;34310;51.904;4.256;2023-11-22T06:51:43;15.35;;;8.70;;
48516;SDS011;34310;51.904;4.256;2023-11-22T06:54:09;14.15;;;8.82;;
48516;SDS011;34310;51.904;4.256;2023-11-22T06:56:36;13.77;;;8.20;;
48516;SDS011;34310;51.904;4.256;2023-11-22T06:59:02;14.32;;;9.32;;
48516;SDS011;34310;51.904;4.256;2023-11-22T07:01:29;14.13;;;9.02;;
48516;SDS011;34310;51.904;4.256;2023-11-22T07:03:55;12.00;;;9.00;;
48516;SDS011;34310;51.904;4.256;2023-11-22T07:06:22;12.52;;;7.95;;
48516;SDS011;34310;51.904;4.256;2023-11-22T07:08:49;11.43;;;8.15;;
48516;SDS011;34310;51.904;4.256;2023-11-22T07:11:21;12.55;;;9.10;;
48516;SDS011;34310;51.904;4.256;2023-11-22T07:13:48;9.80;;;8.23;;
48516;SDS011;34310;51.904;4.256;2023-11-22T07:16:14;10.82;;;8.27;;
48516;SDS011;34310;51.904;4.256;2023-11-22T07:18:41;12.40;;;8.40;;
48516;SDS011;34310;51.904;4.256;2023-11-22T07:21:07;10.75;;;8.55;;
48516;SDS011;34310;51.904;4.256;2023-11-22T07:23:34;11.57;;;8.90;;
48516;SDS011;34310;51.904;4.256;2023-11-22T07:26:00;12.63;;;8.63;;
48516;SDS011;34310;51.904;4.256;2023-11-22T07:28:27;10.40;;;8.60;;
48516;SDS011;34310;51.904;4.256;2023-11-22T07:30:53;11.30;;;8.32;;
48516;SDS011;34310;51.904;4.256;2023-11-22T07:33:20;11.82;;;8.75;;
48516;SDS011;34310;51.904;4.256;2023-11-22T07:35:46;12.18;;;8.70;;
48516;SDS011;34310;51.904;4.256;2023-11-22T07:38:13;12.73;;;8.82;;
48516;SDS011;34310;51.904;4.256;2023-11-22T07:40:40;13.05;;;9.35;;
48516;SDS011;34310;51.904;4.256;2023-11-22T07:43:06;12.73;;;9.25;;
48516;SDS011;34310;51.904;4.256;2023-11-22T07:45:32;11.70;;;9.25;;
48516;SDS011;34310;51.904;4.256;2023-11-22T07:47:59;10.70;;;8.75;;
48516;SDS011;34310;51.904;4.256;2023-11-22T07:50:26;13.88;;;9.27;;
48516;SDS011;34310;51.904;4.256;2023-11-22T07:52:53;12.02;;;9.35;;
48516;SDS011;34310;51.904;4.256;2023-11-22T07:55:19;12.32;;;9.15;;
48516;SDS011;34310;51.904;4.256;2023-11-22T07:57:46;12.68;;;9.80;;
48516;SDS011;34310;51.904;4.256;2023-11-22T08:00:16;13.15;;;9.43;;
48516;SDS011;34310;51.904;4.256;2023-11-22T08:02:43;13.93;;;10.07;;
48516;SDS011;34310;51.904;4.256;2023-11-22T08:05:10;17.15;;;9.85;;
48516;SDS011;34310;51.904;4.256;2023-11-22T08:07:37;12.80;;;10.15;;
48516;SDS011;34310;51.904;4.256;2023-11-22T08:10:04;10.93;;;9.43;;
48516;SDS011;34310;51.904;4.256;2023-11-22T08:12:31;11.75;;;9.95;;
48516;SDS011;34310;51.904;4.256;2023-11-22T08:14:57;11.48;;;9.55;;
48516;SDS011;34310;51.904;4.256;2023-11-22T08:17:24;13.70;;;10.07;;
48516;SDS011;34310;51.904;4.256;2023-11-22T08:19:50;13.23;;;9.95;;
48516;SDS011;34310;51.904;4.256;2023-11-22T08:22:17;12.65;;;10.60;;
48516;SDS011;34310;51.904;4.256;2023-11-22T08:24:43;11.77;;;9.98;;
48516;SDS011;34310;51.904;4.256;2023-11-22T08:27:10;13.82;;;10.25;;
48516;SDS011;34310;51.904;4.256;2023-11-22T08:29:36;13.30;;;10.27;;
48516;SDS011;34310;51.904;4.256;2023-11-22T08:32:03;11.38;;;9.57;;
48516;SDS011;34310;51.904;4.256;2023-11-22T08:34:30;12.35;;;9.85;;
48516;SDS011;34310;51.904;4.256;2023-11-22T08:36:56;11.93;;;10.02;;
48516;SDS011;34310;51.904;4.256;2023-11-22T08:39:24;12.45;;;9.77;;
48516;SDS011;34310;51.904;4.256;2023-11-22T08:41:50;12.90;;;10.10;;
48516;SDS011;34310;51.904;4.256;2023-11-22T08:44:17;12.45;;;10.20;;
48516;SDS011;34310;51.904;4.256;2023-11-22T08:46:43;12.35;;;10.23;;
48516;SDS011;34310;51.904;4.256;2023-11-22T08:49:10;13.70;;;10.05;;
48516;SDS011;34310;51.904;4.256;2023-11-22T08:51:36;11.50;;;9.63;;
48516;SDS011;34310;51.904;4.256;2023-11-22T08:54:03;12.20;;;10.30;;
48516;SDS011;34310;51.904;4.256;2023-11-22T08:56:29;11.85;;;10.10;;
48516;SDS011;34310;51.904;4.256;2023-11-22T08:58:56;11.52;;;10.25;;
48516;SDS011;34310;51.904;4.256;2023-11-22T09:01:22;11.27;;;9.80;;
48516;SDS011;34310;51.904;4.256;2023-11-22T09:03:49;12.63;;;9.73;;
48516;SDS011;34310;51.904;4.256;2023-11-22T09:06:16;11.55;;;10.00;;
48516;SDS011;34310;51.904;4.256;2023-11-22T09:08:42;10.52;;;9.43;;
48516;SDS011;34310;51.904;4.256;2023-11-22T09:11:09;11.00;;;9.65;;
48516;SDS011;34310;51.904;4.256;2023-11-22T09:13:35;12.60;;;10.20;;
48516;SDS011;34310;51.904;4.256;2023-11-22T09:16:02;11.32;;;9.77;;
48516;SDS011;34310;51.904;4.256;2023-11-22T09:18:29;12.05;;;9.95;;
48516;SDS011;34310;51.904;4.256;2023-11-22T09:20:55;11.80;;;10.48;;
48516;SDS011;34310;51.904;4.256;2023-11-22T09:23:22;12.48;;;9.73;;
48516;SDS011;34310;51.904;4.256;2023-11-22T09:25:49;11.98;;;9.40;;
48516;SDS011;34310;51.904;4.256;2023-11-22T09:28:15;11.60;;;10.20;;
48516;SDS011;34310;51.904;4.256;2023-11-22T09:30:42;11.48;;;9.63;;
48516;SDS011;34310;51.904;4.256;2023-11-22T09:33:10;11.32;;;9.70;;
48516;SDS011;34310;51.904;4.256;2023-11-22T09:35:38;11.57;;;9.95;;
48516;SDS011;34310;51.904;4.256;2023-11-22T09:38:05;11.57;;;9.23;;
48516;SDS011;34310;51.904;4.256;2023-11-22T09:40:32;11.60;;;9.82;;
48516;SDS011;34310;51.904;4.256;2023-11-22T09:42:59;11.32;;;9.88;;
48516;SDS011;34310;51.904;4.256;2023-11-22T09:45:26;11.30;;;9.80;;
48516;SDS011;34310;51.904;4.256;2023-11-22T09:47:52;11.63;;;10.05;;
48516;SDS011;34310;51.904;4.256;2023-11-22T09:50:21;11.57;;;9.85;;
48516;SDS011;34310;51.904;4.256;2023-11-22T09:52:56;10.93;;;9.82;;
48516;SDS011;34310;51.904;4.256;2023-11-22T09:55:28;10.98;;;9.80;;
48516;SDS011;34310;51.904;4.256;2023-11-22T09:57:56;11.10;;;9.57;;
48516;SDS011;34310;51.904;4.256;2023-11-22T10:00:25;11.48;;;10.27;;
48516;SDS011;34310;51.904;4.256;2023-11-22T10:02:54;12.07;;;10.73;;
48516;SDS011;34310;51.904;4.256;2023-11-22T10:05:20;11.48;;;10.27;;
48516;SDS011;34310;51.904;4.256;2023-11-22T10:07:47;14.43;;;11.15;;
48516;SDS011;34310;51.904;4.256;2023-11-22T10:10:14;11.98;;;10.30;;
48516;SDS011;34310;51.904;4.256;2023-11-22T10:12:44;14.80;;;10.75;;
48516;SDS011;34310;51.904;4.256;2023-11-22T10:15:11;14.15;;;10.55;;
48516;SDS011;34310;51.904;4.256;2023-11-22T10:17:39;11.52;;;10.30;;
48516;SDS011;34310;51.904;4.256;2023-11-22T10:20:07;11.90;;;10.40;;
48516;SDS011;34310;51.904;4.256;2023-11-22T10:22:41;11.73;;;10.48;;
48516;SDS011;34310;51.904;4.256;2023-11-22T10:25:10;12.43;;;11.07;;
48516;SDS011;34310;51.904;4.256;2023-11-22T10:27:37;13.15;;;10.90;;
48516;SDS011;34310;51.904;4.256;2023-11-22T10:30:04;12.10;;;10.90;;
48516;SDS011;34310;51.904;4.256;2023-11-22T10:32:31;11.98;;;10.75;;
48516;SDS011;34310;51.904;4.256;2023-11-22T10:34:58;12.27;;;11.00;;
48516;SDS011;34310;51.904;4.256;2023-11-22T10:37:25;13.73;;;11.05;;
48516;SDS011;34310;51.904;4.256;2023-11-22T10:39:51;12.43;;;10.88;;
48516;SDS011;34310;51.904;4.256;2023-11-22T10:42:18;12.98;;;10.95;;
48516;SDS011;34310;51.904;4.256;2023-11-22T10:44:45;12.48;;;10.60;;
48516;SDS011;34310;51.904;4.256;2023-11-22T10:47:14;11.77;;;10.57;;
48516;SDS011;34310;51.904;4.256;2023-11-22T10:49:41;12.38;;;10.88;;
48516;SDS011;34310;51.904;4.256;2023-11-22T10:52:08;12.02;;;10.73;;
48516;SDS011;34310;51.904;4.256;2023-11-22T10:54:40;12.63;;;10.63;;
48516;SDS011;34310;51.904;4.256;2023-11-22T10:57:15;11.23;;;10.02;;
48516;SDS011;34310;51.904;4.256;2023-11-22T10:59:47;14.63;;;10.25;;
48516;SDS011;34310;51.904;4.256;2023-11-22T11:02:21;11.63;;;10.43;;
48516;SDS011;34310;51.904;4.256;2023-11-22T11:04:51;11.48;;;9.85;;
48516;SDS011;34310;51.904;4.256;2023-11-22T11:07:25;11.85;;;10.05;;
48516;SDS011;34310;51.904;4.256;2023-11-22T11:09:56;11.68;;;10.30;;
48516;SDS011;34310;51.904;4.256;2023-11-22T11:12:38;11.75;;;10.55;;
48516;SDS011;34310;51.904;4.256;2023-11-22T11:15:05;12.48;;;10.45;;
48516;SDS011;34310;51.904;4.256;2023-11-22T11:17:32;11.35;;;9.93;;
48516;SDS011;34310;51.904;4.256;2023-11-22T11:19:59;11.23;;;10.02;;
48516;SDS011;34310;51.904;4.256;2023-11-22T11:22:25;10.25;;;9.25;;
48516;SDS011;34310;51.904;4.256;2023-11-22T11:25:00;11.43;;;9.95;;
48516;SDS011;34310;51.904;4.256;2023-11-22T11:27:27;11.55;;;10.25;;
48516;SDS011;34310;51.904;4.256;2023-11-22T11:29:53;11.75;;;10.27;;
48516;SDS011;34310;51.904;4.256;2023-11-22T11:32:32;11.02;;;9.93;;
48516;SDS011;34310;51.904;4.256;2023-11-22T11:34:59;11.60;;;10.35;;
48516;SDS011;34310;51.904;4.256;2023-11-22T11:37:29;10.63;;;9.52;;
48516;SDS011;34310;51.904;4.256;2023-11-22T11:39:55;10.52;;;9.38;;
48516;SDS011;34310;51.904;4.256;2023-11-22T11:42:24;11.35;;;10.13;;
48516;SDS011;34310;51.904;4.256;2023-11-22T11:45:12;11.32;;;9.85;;
48516;SDS011;34310;51.904;4.256;2023-11-22T11:47:37;11.60;;;10.38;;
48516;SDS011;34310;51.904;4.256;2023-11-22T11:50:04;12.25;;;10.05;;
48516;SDS011;34310;51.904;4.256;2023-11-22T13:52:59;10.73;;;9.32;;
48516;SDS011;34310;51.904;4.256;2023-11-22T13:55:25;10.90;;;9.75;;
48516;SDS011;34310;51.904;4.256;2023-11-22T13:57:52;9.63;;;8.63;;
48516;SDS011;34310;51.904;4.256;2023-11-22T14:00:20;10.60;;;9.18;;
48516;SDS011;34310;51.904;4.256;2023-11-22T14:02:48;10.40;;;9.30;;
48516;SDS011;34310;51.904;4.256;2023-11-22T14:05:15;10.68;;;9.57;;
48516;SDS011;34310;51.904;4.256;2023-11-22T14:07:42;9.75;;;8.48;;
48516;SDS011;34310;51.904;4.256;2023-11-22T14:10:08;10.15;;;9.00;;
48516;SDS011;34310;51.904;4.256;2023-11-22T14:12:35;11.13;;;9.13;;
48516;SDS011;34310;51.904;4.256;2023-11-22T14:15:02;11.23;;;9.15;;
48516;SDS011;34310;51.904;4.256;2023-11-22T14:17:29;10.60;;;9.45;;
48516;SDS011;34310;51.904;4.256;2023-11-22T14:19:56;10.15;;;9.05;;
48516;SDS011;34310;51.904;4.256;2023-11-22T14:22:22;10.23;;;9.13;;
48516;SDS011;34310;51.904;4.256;2023-11-22T14:24:50;10.18;;;8.90;;
48516;SDS011;34310;51.904;4.256;2023-11-22T14:27:17;11.32;;;9.00;;
48516;SDS011;34310;51.904;4.256;2023-11-22T14:29:44;11.35;;;9.00;;
48516;SDS011;34310;51.904;4.256;2023-11-22T14:32:11;10.65;;;9.10;;
48516;SDS011;34310;51.904;4.256;2023-11-22T14:34:38;9.80;;;8.77;;
48516;SDS011;34310;51.904;4.256;2023-11-22T14:37:04;10.18;;;8.98;;
48516;SDS011;34310;51.904;4.256;2023-11-22T14:39:31;10.65;;;9.32;;
48516;SDS011;34310;51.904;4.256;2023-11-22T14:41:57;10.02;;;8.88;;
48516;SDS011;34310;51.904;4.256;2023-11-22T14:44:24;9.23;;;8.25;;
48516;SDS011;34310;51.904;4.256;2023-11-22T14:46:50;10.65;;;9.13;;
48516;SDS011;34310;51.904;4.256;2023-11-22T14:49:17;10.02;;;9.02;;
48516;SDS011;34310;51.904;4.256;2023-11-22T14:51:43;9.80;;;8.80;;
48516;SDS011;34310;51.904;4.256;2023-11-22T14:54:10;10.43;;;8.90;;
48516;SDS011;34310;51.904;4.256;2023-11-22T14:56:36;10.98;;;8.80;;
48516;SDS011;34310;51.904;4.256;2023-11-22T14:59:03;9.43;;;8.30;;
48516;SDS011;34310;51.904;4.256;2023-11-22T15:01:29;9.10;;;8.15;;
48516;SDS011;34310;51.904;4.256;2023-11-22T15:03:56;9.23;;;8.23;;
48516;SDS011;34310;51.904;4.256;2023-11-22T15:06:22;9.73;;;8.73;;
48516;SDS011;34310;51.904;4.256;2023-11-22T15:08:49;10.20;;;9.18;;
48516;SDS011;34310;51.904;4.256;2023-11-22T15:11:16;9.63;;;8.38;;
48516;SDS011;34310;51.904;4.256;2023-11-22T15:13:43;10.35;;;8.68;;
48516;SDS011;34310;51.904;4.256;2023-11-22T15:16:09;9.07;;;8.15;;
48516;SDS011;34310;51.904;4.256;2023-11-22T15:18:36;8.90;;;8.00;;
48516;SDS011;34310;51.904;4.256;2023-11-22T15:21:03;9.38;;;8.13;;
48516;SDS011;34310;51.904;4.256;2023-11-22T15:23:29;9.68;;;8.20;;
48516;SDS011;34310;51.904;4.256;2023-11-22T15:25:56;12.05;;;8.48;;
48516;SDS011;34310;51.904;4.256;2023-11-22T15:28:22;8.65;;;7.75;;
48516;SDS011;34310;51.904;4.256;2023-11-22T15:30:49;9.27;;;8.27;;
48516;SDS011;34310;51.904;4.256;2023-11-22T15:33:16;9.65;;;8.23;;
48516;SDS011;34310;51.904;4.256;2023-11-22T15:35:42;9.23;;;8.23;;
48516;SDS011;34310;51.904;4.256;2023-11-22T15:38:09;9.15;;;7.88;;
48516;SDS011;34310;51.904;4.256;2023-11-22T15:40:35;9.88;;;8.27;;
48516;SDS011;34310;51.904;4.256;2023-11-22T15:43:02;9.50;;;8.18;;
48516;SDS011;34310;51.904;4.256;2023-11-22T15:45:28;9.25;;;8.18;;
48516;SDS011;34310;51.904;4.256;2023-11-22T15:47:55;9.52;;;8.10;;
48516;SDS011;34310;51.904;4.256;2023-11-22T15:50:21;9.98;;;8.45;;
48516;SDS011;34310;51.904;4.256;2023-11-22T15:52:48;8.77;;;7.80;;
48516;SDS011;34310;51.904;4.256;2023-11-22T15:55:14;9.75;;;7.93;;
48516;SDS011;34310;51.904;4.256;2023-11-22T15:57:41;11.27;;;8.70;;
48516;SDS011;34310;51.904;4.256;2023-11-22T16:00:07;9.75;;;8.23;;
48516;SDS011;34310;51.904;4.256;2023-11-22T16:02:34;9.82;;;8.65;;
48516;SDS011;34310;51.904;4.256;2023-11-22T16:05:01;8.85;;;7.70;;
48516;SDS011;34310;51.904;4.256;2023-11-22T16:07:27;9.27;;;8.38;;
48516;SDS011;34310;51.904;4.256;2023-11-22T16:09:54;9.50;;;8.50;;
48516;SDS011;34310;51.904;4.256;2023-11-22T16:12:20;9.32;;;8.25;;
48516;SDS011;34310;51.904;4.256;2023-11-22T16:14:47;10.75;;;8.73;;
48516;SDS011;34310;51.904;4.256;2023-11-22T16:17:15;11.10;;;9.10;;
48516;SDS011;34310;51.904;4.256;2023-11-22T16:19:42;11.82;;;8.25;;
48516;SDS011;34310;51.904;4.256;2023-11-22T16:22:08;9.02;;;8.10;;
48516;SDS011;34310;51.904;4.256;2023-11-22T16:24:34;9.18;;;8.27;;
48516;SDS011;34310;51.904;4.256;2023-11-22T16:27:01;14.13;;;8.35;;
48516;SDS011;34310;51.904;4.256;2023-11-22T16:29:28;10.68;;;9.00;;
48516;SDS011;34310;51.904;4.256;2023-11-22T16:31:54;12.10;;;8.93;;
48516;SDS011;34310;51.904;4.256;2023-11-22T16:34:21;9.68;;;8.68;;
48516;SDS011;34310;51.904;4.256;2023-11-22T16:36:49;10.30;;;8.98;;